DET weather

Coleman A. Young Municipal Airport
Detroit, Michigan, United States

Public forecast

Using degrees Fahrenheit for public forecast. Weather courtesy of forecast.io.

METAR (pilot weather report)

Retrieved 2019/06/17 00:28 UTC (15 minutes ago):

KDET 170028Z 06006KT 3SM BR OVC005 15/14 A2992 RMK AO2 CIG 003V008 T01500139

TAF (pilot weather forecast)

Forecast is more than 12 hours old.

Retrieved 2019/06/16 00:22 UTC (1 day ago):

TAF KDET 162320Z 1700/1724 06006KT 5SM BR OVC008 TEMPO 1700/1702 3SM -DZ BR OVC005 FM170600 03003KT P6SM OVC015 FM171400 05005KT P6SM OVC020 FM171800 06005KT P6SM OVC040